Time;durP1;ratioP1;P1;durP2;ratioP2;P2;SDS_P1;SDS_P2;PMS_P1;PMS_P2;Temp;Humidity;BMP_temperature;BMP_pressure;BME280_temperature;BME280_humidity;BME280_pressure;Samples;Min_cycle;Max_cycle;Signal;HPM_P1;HPM_P2
2021/12/14 00:00:19;;;;;;;43.95;25.40;;;;;;;7.14;100.00;102417.69;4908152;29;20032;-76
2021/12/14 00:02:46;;;;;;;41.25;23.08;;;;;;;7.05;100.00;102411.22;4910904;29;20120;-76
2021/12/14 00:05:14;;;;;;;42.38;23.05;;;;;;;7.12;100.00;102414.31;4913313;28;20099;-76
2021/12/14 00:07:41;;;;;;;38.72;23.95;;;;;;;7.17;100.00;102404.50;4880670;29;20059;-75
2021/12/14 00:13:07;;;;;;;40.42;24.15;;;;;;;7.17;100.00;102404.50;4921821;29;20097;-76
2021/12/14 00:15:33;;;;;;;36.83;21.95;;;;;;;7.17;100.00;102405.31;4892025;29;21010;-75
2021/12/14 00:18:06;;;;;;;40.28;23.20;;;;;;;7.19;100.00;102400.03;4910035;29;20040;-76
2021/12/14 00:20:37;;;;;;;38.38;22.10;;;;;;;7.10;100.00;102395.31;4909387;29;20047;-76
2021/12/14 00:25:46;;;;;;;38.65;22.10;;;;;;;7.18;100.00;102395.75;4895357;29;20107;-74
2021/12/14 00:28:30;;;;;;;38.83;22.67;;;;;;;7.08;100.00;102389.34;4911421;29;20044;-77
2021/12/14 00:30:59;;;;;;;34.50;20.77;;;;;;;7.10;100.00;102383.13;4893327;29;20039;-75
2021/12/14 00:33:31;;;;;;;40.45;22.27;;;;;;;7.07;100.00;102385.88;4911678;29;20645;-75
2021/12/14 00:35:58;;;;;;;35.70;21.95;;;;;;;6.96;100.00;102388.25;4912784;29;20035;-74
2021/12/14 00:38:26;;;;;;;33.40;21.45;;;;;;;6.92;100.00;102378.91;4893923;29;20051;-74
2021/12/14 00:41:07;;;;;;;32.38;21.33;;;;;;;6.78;100.00;102377.00;4906726;29;20507;-76
2021/12/14 00:43:33;;;;;;;40.38;20.70;;;;;;;6.69;100.00;102374.91;4911724;29;20040;-75
2021/12/14 00:45:59;;;;;;;38.88;20.05;;;;;;;6.63;100.00;102368.25;4927759;29;20035;-75
2021/12/14 00:48:25;;;;;;;38.75;22.45;;;;;;;6.63;100.00;102371.69;4911421;29;20067;-75
2021/12/14 00:50:55;;;;;;;36.58;21.45;;;;;;;6.78;100.00;102375.25;4912180;29;20066;-75
2021/12/14 00:53:21;;;;;;;35.85;20.58;;;;;;;6.92;100.00;102378.91;4892509;29;20037;-78
2021/12/14 00:55:50;;;;;;;34.97;21.80;;;;;;;6.90;100.00;102389.41;4895438;29;20384;-77
2021/12/14 00:58:18;;;;;;;34.50;20.65;;;;;;;7.04;100.00;102388.66;4906888;29;20119;-77
2021/12/14 01:00:52;;;;;;;35.85;21.27;;;;;;;7.04;100.00;102393.88;4907023;29;20388;-75
2021/12/14 01:03:20;;;;;;;35.65;21.05;;;;;;;6.99;100.00;102388.91;4897081;29;20036;-79
2021/12/14 01:05:49;;;;;;;30.90;20.27;;;;;;;7.06;100.00;102393.78;4895510;29;20034;-76
2021/12/14 01:08:23;;;;;;;31.42;19.42;;;;;;;7.06;100.00;102394.63;4911132;29;20039;-77
2021/12/14 01:10:55;;;;;;;34.60;21.30;;;;;;;7.15;100.00;102401.13;4901764;29;20095;-77
2021/12/14 01:13:25;;;;;;;30.25;19.45;;;;;;;7.14;100.00;102402.91;4903241;29;20156;-76
2021/12/14 01:24:09;;;;;;;31.08;20.00;;;;;;;7.01;100.00;102407.09;4895605;29;20064;-76
2021/12/14 01:26:38;;;;;;;30.20;19.75;;;;;;;7.00;100.00;102411.44;4895368;29;20043;-78
2021/12/14 01:29:09;;;;;;;33.88;19.67;;;;;;;6.96;100.00;102404.72;4912659;29;20043;-76
2021/12/14 01:31:39;;;;;;;30.02;19.17;;;;;;;6.94;100.00;102401.34;4897463;29;20083;-76
2021/12/14 01:34:16;;;;;;;33.60;19.58;;;;;;;6.97;100.00;102392.53;4912138;29;20036;-77
2021/12/14 01:36:47;;;;;;;34.47;20.50;;;;;;;6.92;100.00;102394.56;4921778;29;20036;-76
2021/12/14 01:42:08;;;;;;;31.52;19.88;;;;;;;7.09;100.00;102391.03;4904933;29;20398;-76
2021/12/14 01:44:43;;;;;;;32.28;19.52;;;;;;;7.14;100.00;102379.41;4911621;29;20604;-78
2021/12/14 01:47:22;;;;;;;32.92;19.35;;;;;;;7.18;100.00;102378.31;4895712;29;20032;-76
2021/12/14 01:50:22;;;;;;;33.58;19.63;;;;;;;7.12;100.00;102381.28;4885930;29;20464;-77
2021/12/14 01:53:09;;;;;;;32.15;19.13;;;;;;;7.10;100.00;102377.91;4907284;29;20044;-76
2021/12/14 01:55:40;;;;;;;34.17;19.90;;;;;;;7.10;100.00;102390.09;4904949;29;20036;-77
2021/12/14 01:58:09;;;;;;;31.75;18.70;;;;;;;7.16;100.00;102380.16;4924371;29;20042;-78
2021/12/14 02:00:41;;;;;;;31.13;19.33;;;;;;;7.10;100.00;102372.69;4885412;29;20043;-77
2021/12/14 02:03:11;;;;;;;31.88;18.70;;;;;;;7.11;100.00;102373.53;4907087;29;20031;-77
2021/12/14 02:05:44;;;;;;;29.23;18.95;;;;;;;6.99;100.00;102365.44;4887600;29;20122;-77
2021/12/14 02:08:25;;;;;;;31.15;18.98;;;;;;;6.96;100.00;102360.38;4917688;29;20554;-78
2021/12/14 02:10:54;;;;;;;27.20;18.58;;;;;;;6.92;100.00;102343.22;4891063;29;20040;-78
2021/12/14 02:13:25;;;;;;;29.73;19.30;;;;;;;6.96;100.00;102338.66;4911552;29;20033;-76
2021/12/14 02:15:53;;;;;;;35.25;19.75;;;;;;;7.06;100.00;102323.34;4909471;29;20115;-76
2021/12/14 02:18:25;;;;;;;32.20;19.08;;;;;;;7.13;100.00;102324.69;4924425;29;20056;-77
2021/12/14 02:21:01;;;;;;;33.15;19.40;;;;;;;7.05;100.00;102325.13;4911511;29;20203;-78
2021/12/14 02:23:30;;;;;;;30.95;19.23;;;;;;;7.14;100.00;102324.63;4924632;29;20036;-76
2021/12/14 02:26:00;;;;;;;32.63;19.90;;;;;;;7.05;100.00;102317.28;4892572;29;20040;-76
2021/12/14 02:28:27;;;;;;;29.98;19.73;;;;;;;7.08;100.00;102324.09;4894529;29;20102;-76
2021/12/14 02:30:55;;;;;;;30.38;20.25;;;;;;;7.12;100.00;102308.19;4916168;29;20047;-76
2021/12/14 02:33:32;;;;;;;32.85;20.90;;;;;;;7.11;100.00;102305.69;4892462;29;20135;-77
2021/12/14 02:36:04;;;;;;;35.45;19.98;;;;;;;7.12;100.00;102297.75;4908396;29;20112;-76
2021/12/14 02:38:30;;;;;;;34.47;19.85;;;;;;;7.12;100.00;102294.28;4924096;29;20566;-75
2021/12/14 02:41:05;;;;;;;30.38;20.10;;;;;;;7.09;100.00;102290.09;4911667;29;20040;-76
2021/12/14 02:43:54;;;;;;;33.53;19.85;;;;;;;7.06;100.00;102287.66;4908705;29;20047;-76
2021/12/14 02:46:33;;;;;;;37.75;21.20;;;;;;;7.11;100.00;102292.63;4940282;29;20028;-76
2021/12/14 02:49:03;;;;;;;33.65;20.73;;;;;;;7.09;100.00;102290.09;4892927;29;20047;-77
2021/12/14 02:51:34;;;;;;;35.00;21.50;;;;;;;7.06;100.00;102276.38;4925059;29;20032;-76
2021/12/14 02:54:09;;;;;;;32.75;20.75;;;;;;;7.08;100.00;102279.75;4908845;29;20123;-78
2021/12/14 02:56:37;;;;;;;35.67;20.60;;;;;;;7.09;100.00;102284.88;4907216;29;20078;-77
2021/12/14 02:59:10;;;;;;;31.60;19.73;;;;;;;7.02;100.00;102291.38;4892720;29;20039;-76
2021/12/14 03:01:37;;;;;;;36.22;21.35;;;;;;;7.03;100.00;102285.22;4905909;29;20040;-75
2021/12/14 03:04:06;;;;;;;37.88;21.38;;;;;;;7.05;100.00;102292.97;4894776;29;20494;-77
2021/12/14 03:06:44;;;;;;;31.42;20.45;;;;;;;7.09;100.00;102299.72;4889507;29;20157;-74
2021/12/14 03:09:33;;;;;;;32.15;20.08;;;;;;;7.10;100.00;102293.53;4909233;29;20056;-75
2021/12/14 03:12:15;;;;;;;32.53;19.98;;;;;;;7.06;100.00;102286.81;4922682;29;20032;-75
2021/12/14 03:14:47;;;;;;;;;;;;;;;7.12;100.00;102295.16;4898372;29;20080;-76
2021/12/14 03:17:13;;;;;;;32.30;20.48;;;;;;;7.10;100.00;102290.94;4876454;29;20026;-76
2021/12/14 03:19:40;;;;;;;32.40;19.95;;;;;;;7.05;100.00;102291.19;4908562;29;20175;-76
2021/12/14 03:22:23;;;;;;;31.60;20.10;;;;;;;7.08;100.00;102282.34;4910492;29;20149;-76
2021/12/14 03:24:49;;;;;;;30.50;19.35;;;;;;;7.00;100.00;102281.00;4903237;29;20044;-76
2021/12/14 03:27:16;;;;;;;30.00;19.50;;;;;;;6.99;100.00;102279.34;4921034;29;20024;-77
2021/12/14 03:29:42;;;;;;;28.92;19.50;;;;;;;7.06;100.00;102279.00;4912746;29;20044;-77
2021/12/14 03:32:08;;;;;;;34.65;20.77;;;;;;;7.01;100.00;102279.25;4909326;29;20047;-76
2021/12/14 03:34:38;;;;;;;35.28;19.95;;;;;;;7.01;100.00;102279.25;4894180;29;20048;-76
2021/12/14 03:37:13;;;;;;;33.55;20.75;;;;;;;7.01;100.00;102287.09;4895035;29;20032;-76
2021/12/14 03:39:46;;;;;;;32.70;20.33;;;;;;;7.00;100.00;102283.63;4903657;29;20087;-76
2021/12/14 03:42:18;;;;;;;30.33;19.20;;;;;;;7.04;100.00;102275.63;4914053;29;20087;-76
2021/12/14 03:44:51;;;;;;;31.02;19.20;;;;;;;7.00;100.00;102274.97;4906249;29;20047;-78
2021/12/14 03:47:32;;;;;;;34.28;19.10;;;;;;;6.94;100.00;102286.56;4944535;29;20128;-76
2021/12/14 03:50:07;;;;;;;31.30;19.63;;;;;;;6.96;100.00;102276.88;4913836;29;20538;-77
2021/12/14 03:52:37;;;;;;;31.33;18.60;;;;;;;6.92;100.00;102285.81;4927744;29;20385;-77
2021/12/14 03:55:17;;;;;;;32.60;19.98;;;;;;;7.03;100.00;102285.22;4897855;29;20036;-77
2021/12/14 03:57:43;;;;;;;29.45;19.25;;;;;;;6.91;100.00;102289.38;4910920;29;20048;-76
2021/12/14 04:00:14;;;;;;;30.73;19.50;;;;;;;6.79;100.00;102290.88;4898053;29;20124;-76
2021/12/14 04:02:48;;;;;;;34.90;18.65;;;;;;;6.92;100.00;102298.03;4913746;29;20471;-78
2021/12/14 04:05:17;;;;;;;29.20;18.63;;;;;;;6.88;100.00;102301.75;4927942;29;20063;-77
2021/12/14 04:07:44;;;;;;;27.27;18.60;;;;;;;6.97;100.00;102296.84;4928864;29;20060;-76
2021/12/14 04:10:22;;;;;;;26.98;18.42;;;;;;;6.96;100.00;102286.50;4896629;29;20091;-77
2021/12/14 04:12:49;;;;;;;30.00;18.98;;;;;;;6.95;100.00;102292.63;4898699;29;20088;-76
2021/12/14 04:15:15;;;;;;;28.88;18.02;;;;;;;6.97;100.00;102286.41;4909326;29;20115;-77
2021/12/14 04:17:41;;;;;;;29.85;17.98;;;;;;;6.91;100.00;102284.16;4929312;29;20048;-78
2021/12/14 04:20:11;;;;;;;32.08;18.40;;;;;;;6.93;100.00;102278.81;4927006;29;20044;-77
2021/12/14 04:22:36;;;;;;;26.63;18.38;;;;;;;6.96;100.00;102282.09;4913143;29;20515;-76
2021/12/14 04:25:07;;;;;;;26.20;17.40;;;;;;;6.94;100.00;102281.34;4884818;29;20131;-78
2021/12/14 04:27:33;;;;;;;27.13;17.33;;;;;;;6.97;100.00;102281.19;4912030;29;20032;-77
2021/12/14 04:30:06;;;;;;;28.00;18.00;;;;;;;6.97;100.00;102283.81;4912187;29;20039;-77
2021/12/14 04:32:32;;;;;;;27.98;17.58;;;;;;;6.94;100.00;102267.47;4910243;29;20042;-77
2021/12/14 04:34:57;;;;;;;26.25;18.08;;;;;;;6.86;100.00;102267.06;4897051;29;20040;-78
2021/12/14 04:37:23;;;;;;;28.67;18.23;;;;;;;6.95;100.00;102264.78;4911951;29;20037;-77
2021/12/14 04:39:59;;;;;;;27.23;17.98;;;;;;;6.95;100.00;102264.78;4895583;29;20056;-77
2021/12/14 04:53:50;;;;;;;27.13;17.77;;;;;;;6.86;100.00;102264.47;4903328;29;20414;-77
2021/12/14 04:56:26;;;;;;;32.28;17.17;;;;;;;6.92;100.00;102261.50;4910328;29;20052;-78
2021/12/14 04:59:04;;;;;;;28.48;18.20;;;;;;;6.76;100.00;102258.88;4894347;29;20031;-79
2021/12/14 05:01:33;;;;;;;26.27;17.23;;;;;;;6.84;100.00;102259.34;4910532;29;20032;-79
2021/12/14 05:04:03;;;;;;;25.65;16.65;;;;;;;6.85;100.00;102254.94;4913464;29;20032;-77
2021/12/14 05:06:46;;;;;;;25.00;16.70;;;;;;;6.94;100.00;102257.88;4925096;29;20463;-77
2021/12/14 05:09:25;;;;;;;26.55;17.08;;;;;;;6.89;100.00;102256.44;4911957;29;20067;-78
2021/12/14 05:11:59;;;;;;;24.90;17.05;;;;;;;6.83;100.00;102261.06;4911307;29;20052;-77
2021/12/14 05:14:28;;;;;;;22.35;16.10;;;;;;;6.86;100.00;102251.44;4912652;29;20407;-76
2021/12/14 05:17:02;;;;;;;24.00;16.10;;;;;;;6.79;100.00;102250.91;4894724;29;20036;-76
2021/12/14 05:19:32;;;;;;;26.77;16.50;;;;;;;6.88;100.00;102247.78;4880285;29;20446;-77
2021/12/14 05:22:26;;;;;;;23.73;16.45;;;;;;;6.86;100.00;102247.03;4925367;29;20189;-76
2021/12/14 05:24:56;;;;;;;25.15;15.95;;;;;;;6.82;100.00;102250.75;4910862;29;20047;-77
2021/12/14 05:27:28;;;;;;;24.38;16.08;;;;;;;6.79;100.00;102245.69;4909895;29;20651;-76
2021/12/14 05:30:06;;;;;;;22.90;15.48;;;;;;;6.83;100.00;102248.03;4923341;29;20036;-76
2021/12/14 05:32:37;;;;;;;25.98;15.63;;;;;;;6.80;100.00;102243.00;4891963;29;20123;-76
2021/12/14 05:35:05;;;;;;;23.38;16.05;;;;;;;6.75;100.00;102238.97;4912287;29;20047;-76
2021/12/14 05:37:34;;;;;;;21.70;15.73;;;;;;;6.72;100.00;102246.94;4927806;29;20041;-77
2021/12/14 05:40:05;;;;;;;23.00;16.35;;;;;;;6.76;100.00;102251.06;4897447;29;20044;-76
2021/12/14 05:45:45;;;;;;;23.20;15.40;;;;;;;6.66;100.00;102255.13;4903193;29;20130;-76
2021/12/14 05:48:26;;;;;;;27.10;16.17;;;;;;;6.74;100.00;102247.72;4926236;29;20039;-77
2021/12/14 05:51:00;;;;;;;24.13;14.80;;;;;;;6.72;100.00;102254.78;4923195;29;20040;-77
2021/12/14 05:53:34;;;;;;;26.27;16.15;;;;;;;6.73;100.00;102241.66;4911151;29;20056;-76
2021/12/14 05:56:05;;;;;;;21.83;15.07;;;;;;;6.70;100.00;102244.44;4925552;29;20040;-77
2021/12/14 05:58:32;;;;;;;22.30;15.80;;;;;;;6.74;100.00;102235.53;4898013;29;20095;-77
2021/12/14 06:01:04;;;;;;;24.05;15.45;;;;;;;6.69;100.00;102234.94;4896293;29;20047;-77
2021/12/14 06:03:37;;;;;;;21.00;14.85;;;;;;;6.74;100.00;102240.75;4879106;29;20135;-77
2021/12/14 06:06:13;;;;;;;21.80;15.35;;;;;;;6.68;100.00;102235.00;4925624;28;20102;-76
2021/12/14 06:08:40;;;;;;;22.33;15.30;;;;;;;6.69;100.00;102231.50;4893603;29;20032;-77
2021/12/14 06:11:25;;;;;;;26.13;16.25;;;;;;;6.67;100.00;102235.94;4910383;29;20771;-77
2021/12/14 06:13:53;;;;;;;29.25;16.92;;;;;;;6.61;100.00;102234.50;4927006;29;20789;-77
2021/12/14 06:16:31;;;;;;;25.08;15.73;;;;;;;6.77;100.00;102244.94;4911241;29;20146;-76
2021/12/14 06:19:16;;;;;;;24.85;15.65;;;;;;;6.73;100.00;102248.66;4911259;29;20479;-77
2021/12/14 06:21:45;;;;;;;22.33;15.20;;;;;;;6.91;100.00;102260.69;4922193;29;20104;-76
2021/12/14 06:24:11;;;;;;;23.35;15.55;;;;;;;6.89;100.00;102256.44;4942664;29;20071;-77
2021/12/14 06:26:48;;;;;;;24.73;15.77;;;;;;;6.83;100.00;102257.63;4893933;29;20028;-78
2021/12/14 06:29:19;;;;;;;;;;;;;;;6.83;100.00;102261.06;4907808;29;20103;-78
2021/12/14 06:31:45;;;;;;;25.50;16.05;;;;;;;6.89;100.00;102251.22;4911589;29;19922;-77
2021/12/14 06:34:14;;;;;;;24.25;15.88;;;;;;;6.94;100.00;102260.50;4925326;29;20036;-77
2021/12/14 06:37:17;;;;;;;24.88;15.27;;;;;;;6.91;100.00;102260.69;4879302;29;20036;-77
2021/12/14 06:39:57;;;;;;;25.20;17.02;;;;;;;6.94;100.00;102262.25;4906454;29;20051;-77
2021/12/14 06:42:23;;;;;;;24.38;16.58;;;;;;;6.95;100.00;102261.31;4910404;29;20040;-77
2021/12/14 06:44:49;;;;;;;24.20;17.70;;;;;;;6.89;100.00;102256.44;4893770;29;20047;-77
2021/12/14 06:47:14;;;;;;;24.90;17.08;;;;;;;6.90;100.00;102256.38;4894851;29;20067;-77
2021/12/14 06:49:40;;;;;;;27.30;17.63;;;;;;;6.95;100.00;102256.09;4912157;29;20127;-76
2021/12/14 06:52:07;;;;;;;26.27;17.63;;;;;;;6.94;100.00;102260.50;4925281;29;20040;-77
2021/12/14 06:54:44;;;;;;;29.85;18.48;;;;;;;6.86;100.00;102260.09;4910661;29;20546;-77
2021/12/14 06:57:28;;;;;;;25.50;17.80;;;;;;;6.83;100.00;102265.47;4909776;29;20604;-76
2021/12/14 06:59:59;;;;;;;30.52;18.20;;;;;;;6.82;100.00;102269.84;4910402;29;20538;-77
2021/12/14 07:02:36;;;;;;;27.65;17.98;;;;;;;6.85;100.00;102270.59;4913843;29;20115;-76
2021/12/14 07:05:17;;;;;;;33.70;19.40;;;;;;;6.75;100.00;102260.66;4899844;29;20044;-77
2021/12/14 07:07:46;;;;;;;32.92;19.17;;;;;;;6.83;100.00;102268.06;4911144;29;20036;-77
2021/12/14 07:10:15;;;;;;;27.85;18.77;;;;;;;6.94;100.00;102268.31;4909896;29;20047;-77
2021/12/14 07:12:41;;;;;;;28.95;19.13;;;;;;;6.92;100.00;102264.13;4917649;29;20033;-76
2021/12/14 07:15:27;;;;;;;30.17;19.00;;;;;;;6.95;100.00;102269.16;4923610;29;20043;-78
2021/12/14 07:18:03;;;;;;;28.67;17.58;;;;;;;6.92;100.00;102264.94;4913871;29;20032;-76
2021/12/14 07:20:42;;;;;;;31.85;19.58;;;;;;;7.01;100.00;102277.47;4930336;29;20048;-76
2021/12/14 07:23:22;;;;;;;29.25;18.38;;;;;;;7.00;100.00;102270.56;4897769;29;20036;-76
2021/12/14 07:25:56;;;;;;;29.45;18.27;;;;;;;7.00;100.00;102267.13;4902550;29;20051;-78
2021/12/14 07:28:22;;;;;;;32.20;19.42;;;;;;;7.04;100.00;102263.41;4913889;29;20604;-77
2021/12/14 07:30:54;;;;;;;31.60;20.10;;;;;;;7.10;100.00;102257.00;4926930;29;20031;-78
2021/12/14 07:33:23;;;;;;;29.92;18.98;;;;;;;7.09;100.00;102266.63;4928626;29;20055;-78
2021/12/14 07:36:00;;;;;;;30.52;18.52;;;;;;;7.03;100.00;102274.78;4928086;29;20512;-77
2021/12/14 07:38:31;;;;;;;30.67;19.20;;;;;;;7.09;100.00;102284.03;4898068;29;20051;-76
2021/12/14 07:41:32;;;;;;;32.78;19.42;;;;;;;7.02;100.00;102279.16;4913358;29;20047;-78
2021/12/14 07:44:10;;;;;;;35.30;20.20;;;;;;;7.03;100.00;102277.41;4887217;29;20392;-77
2021/12/14 07:46:47;;;;;;;32.33;20.58;;;;;;;7.10;100.00;102290.94;4914124;29;20063;-77
2021/12/14 07:49:32;;;;;;;33.08;20.15;;;;;;;7.11;100.00;102293.47;4914408;29;20112;-77
2021/12/14 07:52:17;;;;;;;30.33;18.88;;;;;;;7.09;100.00;102289.28;4929066;29;20695;-77
2021/12/14 07:54:53;;;;;;;36.40;21.33;;;;;;;7.04;100.00;102293.88;4909968;29;20038;-77
2021/12/14 07:57:28;;;;;;;34.80;21.20;;;;;;;7.04;100.00;102299.09;4916057;29;20042;-78
2021/12/14 07:59:57;;;;;;;37.13;21.25;;;;;;;7.07;100.00;102307.59;4912466;29;20043;-77
2021/12/14 08:02:33;;;;;;;40.42;22.13;;;;;;;6.99;100.00;102304.59;4929101;29;20041;-76
2021/12/14 08:05:01;;;;;;;38.22;21.88;;;;;;;6.97;100.00;102314.28;4930485;29;20039;-78
2021/12/14 08:07:37;;;;;;;42.13;24.17;;;;;;;6.90;100.00;102308.53;4916852;29;20555;-76
2021/12/14 08:10:14;;;;;;;40.88;23.95;;;;;;;6.85;100.00;102315.78;4916108;29;20099;-80
2021/12/14 08:12:53;;;;;;;41.25;23.67;;;;;;;6.80;100.00;102315.19;4891733;29;20107;-77
2021/12/14 08:15:25;;;;;;;42.22;24.45;;;;;;;6.87;100.00;102319.13;4912679;29;20044;-76
2021/12/14 08:18:17;;;;;;;42.00;24.57;;;;;;;6.85;100.00;102315.78;4929521;29;20040;-75
2021/12/14 08:21:02;;;;;;;42.60;24.60;;;;;;;6.91;100.00;102325.88;4924316;29;20319;-76
2021/12/14 08:23:35;;;;;;;44.88;26.33;;;;;;;6.85;100.00;102323.59;4911988;29;20560;-77
2021/12/14 08:26:26;;;;;;;40.83;25.08;;;;;;;6.78;100.00;102319.63;4912144;29;20522;-77
2021/12/14 08:29:15;;;;;;;37.67;24.08;;;;;;;6.85;100.00;102318.38;4906115;29;20447;-76
2021/12/14 08:31:49;;;;;;;45.42;26.42;;;;;;;6.90;100.00;102308.53;4905458;29;20123;-77
2021/12/14 08:34:27;;;;;;;44.65;25.95;;;;;;;6.91;100.00;102311.97;4912045;29;20040;-77
2021/12/14 08:37:01;;;;;;;41.97;24.83;;;;;;;6.98;100.00;102313.34;4912177;29;20035;-77
2021/12/14 08:39:32;;;;;;;41.90;25.45;;;;;;;7.01;100.00;102306.19;4910678;29;20040;-77
2021/12/14 08:42:10;;;;;;;42.03;24.75;;;;;;;6.98;100.00;102290.69;4926622;29;20494;-77
2021/12/14 08:44:40;;;;;;;43.58;26.67;;;;;;;7.11;100.00;102303.06;4909305;29;20605;-76
2021/12/14 08:47:12;;;;;;;41.65;25.40;;;;;;;7.11;100.00;102316.13;4913231;29;20135;-77
2021/12/14 08:49:39;;;;;;;;;;;;;;;7.10;100.00;102309.19;4917697;29;20114;-77
2021/12/14 08:52:05;;;;;;;46.22;26.50;;;;;;;7.07;100.00;102310.22;4908437;29;19919;-76
2021/12/14 08:54:34;;;;;;;42.30;25.45;;;;;;;7.17;100.00;102318.38;4878883;29;20407;-77
2021/12/14 08:57:10;;;;;;;44.55;25.90;;;;;;;7.13;100.00;102320.31;4908747;29;20066;-75
2021/12/14 08:59:38;;;;;;;47.60;27.63;;;;;;;7.15;100.00;102315.84;4924724;29;20040;-76
2021/12/14 09:02:08;;;;;;;51.08;27.92;;;;;;;7.13;100.00;102325.53;4911205;29;20118;-77
2021/12/14 09:04:38;;;;;;;44.72;27.85;;;;;;;7.08;100.00;102316.28;4894822;29;20568;-76
2021/12/14 09:07:08;;;;;;;44.47;26.58;;;;;;;7.04;100.00;102320.81;4922519;28;20068;-77
2021/12/14 09:09:34;;;;;;;49.05;27.10;;;;;;;7.13;100.00;102319.47;4910636;29;20474;-76
2021/12/14 09:12:27;;;;;;;50.22;28.08;;;;;;;7.17;100.00;102319.22;4926321;29;20036;-76
2021/12/14 09:14:56;;;;;;;48.72;26.73;;;;;;;7.13;100.00;102320.31;4905262;29;20047;-76
2021/12/14 09:17:23;;;;;;;44.88;26.60;;;;;;;7.15;100.00;102317.63;4909818;29;20047;-76
2021/12/14 09:19:59;;;;;;;49.67;27.67;;;;;;;7.17;100.00;102320.97;4911446;29;20040;-77
2021/12/14 09:22:32;;;;;;;50.58;27.38;;;;;;;7.15;100.00;102312.41;4908467;29;20386;-77
2021/12/14 09:24:58;;;;;;;54.42;28.48;;;;;;;7.14;100.00;102328.97;4911416;29;20063;-77
2021/12/14 09:27:27;;;;;;;52.63;27.20;;;;;;;7.09;100.00;102323.19;4905122;29;20046;-77
2021/12/14 09:29:55;;;;;;;54.20;29.55;;;;;;;7.02;100.00;102314.84;4910097;29;20039;-77
2021/12/14 09:32:27;;;;;;;59.13;30.23;;;;;;;7.01;100.00;102319.22;4940421;29;20521;-77
2021/12/14 09:34:54;;;;;;;61.58;30.73;;;;;;;7.10;100.00;102311.81;4904697;29;20051;-76
2021/12/14 09:37:21;;;;;;;56.95;30.30;;;;;;;7.02;100.00;102300.03;4894397;29;20039;-77
2021/12/14 09:39:50;;;;;;;54.65;31.08;;;;;;;7.12;100.00;102315.16;4924081;29;20116;-76
2021/12/14 09:42:22;;;;;;;51.20;29.73;;;;;;;7.01;100.00;102315.78;4925437;29;20364;-76
2021/12/14 09:44:51;;;;;;;55.97;30.60;;;;;;;7.08;100.00;102321.50;4910741;29;20086;-76
2021/12/14 09:47:21;;;;;;;61.55;31.60;;;;;;;7.13;100.00;102320.31;4910104;29;20651;-76
2021/12/14 09:49:49;;;;;;;58.72;31.48;;;;;;;7.12;100.00;102321.25;4925418;29;20552;-77
2021/12/14 09:52:22;;;;;;;54.03;29.88;;;;;;;7.10;100.00;102330.06;4908050;29;20036;-76
2021/12/14 09:54:50;;;;;;;56.10;30.70;;;;;;;7.16;100.00;102329.75;4902679;29;20032;-76
2021/12/14 09:57:30;;;;;;;61.13;31.23;;;;;;;7.17;100.00;102329.66;4909505;29;20217;-77
2021/12/14 10:00:00;;;;;;;56.45;29.77;;;;;;;7.20;100.00;102337.31;4916883;29;20488;-76
2021/12/14 10:02:31;;;;;;;52.50;29.83;;;;;;;7.16;100.00;102342.81;4922914;29;20032;-77
2021/12/14 10:05:18;;;;;;;50.67;29.80;;;;;;;7.25;100.00;102336.22;4895301;29;20059;-76
2021/12/14 10:07:46;;;;;;;52.42;29.85;;;;;;;7.26;100.00;102338.75;4895376;29;20104;-76
2021/12/14 10:10:15;;;;;;;54.15;28.50;;;;;;;7.23;100.00;102338.91;4922182;29;20047;-76
2021/12/14 10:12:50;;;;;;;52.60;29.10;;;;;;;7.30;100.00;102339.41;4909771;29;20038;-76
2021/12/14 10:15:33;;;;;;;52.50;28.17;;;;;;;7.25;100.00;102338.81;4921784;29;20115;-77
2021/12/14 10:18:05;;;;;;;52.22;29.23;;;;;;;7.26;100.00;102343.97;4921472;29;20040;-76
2021/12/14 10:20:38;;;;;;;53.05;28.63;;;;;;;7.28;100.00;102349.09;4923691;29;20037;-75
2021/12/14 10:23:04;;;;;;;51.65;29.05;;;;;;;7.19;100.00;102343.44;4905819;29;20099;-78
2021/12/14 10:25:32;;;;;;;52.63;28.25;;;;;;;7.19;100.00;102348.66;4879777;29;20079;-75
2021/12/14 10:27:58;;;;;;;51.70;29.60;;;;;;;7.18;100.00;102346.16;4908300;29;20048;-78
2021/12/14 10:30:32;;;;;;;57.42;30.80;;;;;;;7.18;100.00;102348.78;4924874;29;20039;-78
2021/12/14 10:33:00;;;;;;;55.05;30.88;;;;;;;7.20;100.00;102342.53;4921675;29;20032;-77
2021/12/14 10:35:34;;;;;;;55.50;29.67;;;;;;;7.26;100.00;102343.13;4907588;29;20036;-77
2021/12/14 10:38:14;;;;;;;56.50;29.80;;;;;;;7.24;100.00;102343.22;4894142;29;20066;-75
2021/12/14 10:43:29;;;;;;;56.70;30.17;;;;;;;7.19;100.00;102340.00;4926362;29;20051;-77
2021/12/14 10:45:59;;;;;;;53.90;30.13;;;;;;;7.20;100.00;102339.09;4907891;29;20075;-76
2021/12/14 10:48:32;;;;;;;57.25;29.92;;;;;;;7.28;100.00;102336.06;4910165;29;20036;-76
2021/12/14 10:51:02;;;;;;;53.92;31.60;;;;;;;7.20;100.00;102333.88;4893869;29;20404;-75
2021/12/14 10:53:28;;;;;;;56.53;31.70;;;;;;;7.24;100.00;102339.75;4907575;29;20510;-77
2021/12/14 10:56:09;;;;;;;61.67;32.53;;;;;;;7.21;100.00;102338.16;4921674;29;20048;-76
2021/12/14 10:58:35;;;;;;;61.85;32.95;;;;;;;7.27;100.00;102336.97;4908050;29;20080;-75
2021/12/14 11:01:06;;;;;;;64.32;32.45;;;;;;;7.27;100.00;102337.81;4909691;29;20032;-79
2021/12/14 11:03:36;;;;;;;55.30;31.98;;;;;;;7.21;100.00;102338.16;4903696;29;20064;-79
2021/12/14 11:06:07;;;;;;;63.78;32.40;;;;;;;7.21;100.00;102328.56;4906500;29;20033;-77
2021/12/14 11:08:41;;;;;;;60.35;32.28;;;;;;;7.21;100.00;102335.53;4908091;29;20071;-77
2021/12/14 11:11:20;;;;;;;61.08;32.20;;;;;;;7.26;100.00;102330.91;4911559;29;20028;-76
2021/12/14 11:13:52;;;;;;;59.30;31.13;;;;;;;7.17;100.00;102331.41;4908920;29;20124;-77
2021/12/14 11:16:32;;;;;;;59.50;32.75;;;;;;;7.18;100.00;102338.34;4908872;29;20509;-76
2021/12/14 11:19:04;;;;;;;56.78;31.65;;;;;;;7.13;100.00;102343.78;4894642;29;20499;-77
2021/12/14 11:21:31;;;;;;;60.08;32.45;;;;;;;7.12;100.00;102349.09;4892567;29;20044;-76
2021/12/14 11:23:56;;;;;;;60.15;31.67;;;;;;;7.17;100.00;102352.28;4892185;29;20067;-77
2021/12/14 11:26:35;;;;;;;64.50;32.15;;;;;;;7.19;100.00;102350.44;4891105;29;20051;-77
2021/12/14 11:29:13;;;;;;;60.97;31.45;;;;;;;7.20;100.00;102357.34;4908628;29;20060;-76
2021/12/14 11:31:49;;;;;;;60.10;31.00;;;;;;;7.20;100.00;102344.31;4909735;29;20061;-77
2021/12/14 11:34:29;;;;;;;56.88;31.00;;;;;;;7.21;100.00;102353.81;4908664;29;20039;-76
2021/12/14 11:37:02;;;;;;;59.83;31.48;;;;;;;7.28;100.00;102346.50;4916580;29;20495;-78
2021/12/14 11:39:34;;;;;;;59.03;30.75;;;;;;;7.35;100.00;102343.44;4907706;29;20123;-77
2021/12/14 11:42:07;;;;;;;49.88;29.13;;;;;;;7.38;100.00;102347.66;4895936;29;20040;-78
2021/12/14 11:44:41;;;;;;;59.60;30.73;;;;;;;7.25;100.00;102350.09;4925655;29;20099;-76
2021/12/14 11:50:11;;;;;;;61.08;32.30;;;;;;;7.28;100.00;102360.38;4892491;29;20048;-77
2021/12/14 11:52:52;;;;;;;53.38;29.45;;;;;;;7.27;100.00;102371.75;4908486;29;20426;-77
2021/12/14 11:55:32;;;;;;;63.85;30.88;;;;;;;7.24;100.00;102371.09;4925291;29;20064;-77
2021/12/14 11:58:24;;;;;;;55.75;30.10;;;;;;;7.31;100.00;102375.00;4913675;29;20032;-78
2021/12/14 12:01:10;;;;;;;56.92;30.00;;;;;;;7.28;100.00;102376.03;4910626;29;20139;-77
2021/12/14 12:03:56;;;;;;;57.67;30.73;;;;;;;7.30;100.00;102378.56;4917895;29;20040;-77
2021/12/14 12:09:28;;;;;;;56.30;30.02;;;;;;;7.29;100.00;102376.88;4924208;28;20040;-78
2021/12/14 12:09:31;;;;;;;58.22;28.58;;;;;;;7.24;100.00;102376.31;4914230;29;20135;-78
2021/12/14 12:12:03;;;;;;;61.15;29.63;;;;;;;7.26;100.00;102382.28;4916445;29;20039;-79